Time;durP1;ratioP1;P1;durP2;ratioP2;P2;SDS_P1;SDS_P2;PMS_P1;PMS_P2;Temp;Humidity;BMP_temperature;BMP_pressure;BME280_temperature;BME280_humidity;BME280_pressure;Samples;Min_cycle;Max_cycle;Signal;HPM_P1;HPM_P2
2023/04/04 00:00:03;;;;;;;7.57;3.23;;;3.20;99.90;;;;;;4146123;28;20310;-59
2023/04/04 00:02:04;;;;;;;3.17;2.70;;;3.10;99.90;;;;;;4146466;28;20287;-60
2023/04/04 00:04:05;;;;;;;5.87;3.40;;;3.10;99.90;;;;;;4146519;28;20267;-59
2023/04/04 00:06:07;;;;;;;4.00;2.77;;;3.10;99.90;;;;;;4146088;28;20834;-60
2023/04/04 00:08:08;;;;;;;4.63;2.87;;;3.10;99.90;;;;;;4146876;28;20345;-60
2023/04/04 00:10:09;;;;;;;5.23;3.20;;;3.00;99.90;;;;;;4145520;28;20299;-60
2023/04/04 00:12:11;;;;;;;4.80;3.00;;;3.00;99.90;;;;;;4145599;28;20345;-58
2023/04/04 00:14:12;;;;;;;6.13;2.57;;;3.00;99.90;;;;;;4145444;28;20275;-59
2023/04/04 00:16:13;;;;;;;7.20;3.37;;;2.90;99.90;;;;;;4146612;28;20279;-60
2023/04/04 00:18:15;;;;;;;5.57;3.67;;;2.90;99.90;;;;;;4145738;28;20374;-59
2023/04/04 00:20:16;;;;;;;5.20;2.43;;;2.90;99.90;;;;;;4146514;28;20267;-60
2023/04/04 00:22:17;;;;;;;6.73;3.80;;;2.90;99.90;;;;;;4145679;28;20275;-61
2023/04/04 00:24:18;;;;;;;4.57;3.07;;;2.80;99.90;;;;;;4146072;28;20279;-68
2023/04/04 00:26:20;;;;;;;4.23;3.10;;;2.80;99.90;;;;;;4144496;28;20276;-59
2023/04/04 00:28:22;;;;;;;3.10;2.30;;;2.70;99.90;;;;;;4146383;28;20402;-60
2023/04/04 00:30:23;;;;;;;6.57;3.90;;;2.70;99.90;;;;;;4145787;28;20291;-59
2023/04/04 00:32:24;;;;;;;6.77;3.60;;;2.70;99.90;;;;;;4146633;28;20283;-61
2023/04/04 00:34:25;;;;;;;6.97;3.80;;;2.70;99.90;;;;;;4145902;28;20255;-60
2023/04/04 00:36:26;;;;;;;6.97;3.27;;;2.60;99.90;;;;;;4145567;28;20267;-60
2023/04/04 00:38:28;;;;;;;6.23;3.53;;;2.50;99.90;;;;;;4146132;28;20272;-62
2023/04/04 00:40:29;;;;;;;4.63;3.40;;;2.40;99.90;;;;;;4145693;28;20318;-59
2023/04/04 00:42:32;;;;;;;5.17;3.20;;;2.40;99.90;;;;;;4146279;28;20273;-57
2023/04/04 00:44:35;;;;;;;5.97;4.03;;;2.40;99.90;;;;;;4147983;28;20264;-57
2023/04/04 00:46:36;;;;;;;5.93;3.67;;;2.30;99.90;;;;;;4150369;28;20276;-60
2023/04/04 00:48:38;;;;;;;5.67;3.43;;;2.30;99.90;;;;;;4148691;28;20349;-60
2023/04/04 00:50:39;;;;;;;3.80;3.40;;;2.20;99.90;;;;;;4145772;28;20313;-58
2023/04/04 00:52:41;;;;;;;5.27;3.33;;;2.20;99.90;;;;;;4145685;28;20752;-59
2023/04/04 00:54:42;;;;;;;6.37;3.43;;;2.20;99.90;;;;;;4161994;28;20337;-65
2023/04/04 00:56:43;;;;;;;6.97;3.37;;;2.20;99.90;;;;;;4151071;28;20686;-58
2023/04/04 00:58:45;;;;;;;5.93;2.73;;;2.20;99.90;;;;;;4145786;28;20780;-59
2023/04/04 01:00:46;;;;;;;4.53;3.30;;;2.20;99.90;;;;;;4144842;28;20294;-59
2023/04/04 01:02:47;;;;;;;6.63;3.13;;;2.20;99.90;;;;;;4144849;28;20267;-60
2023/04/04 01:04:50;;;;;;;4.90;3.40;;;2.20;99.90;;;;;;4145350;28;20275;-56
2023/04/04 01:06:51;;;;;;;3.73;2.90;;;2.10;99.90;;;;;;4145250;28;20329;-59
2023/04/04 01:08:54;;;;;;;5.83;3.43;;;2.10;99.90;;;;;;4145626;28;20279;-58
2023/04/04 01:10:55;;;;;;;4.73;2.60;;;2.10;99.90;;;;;;4144910;28;20299;-60
2023/04/04 01:12:57;;;;;;;4.63;3.10;;;2.00;99.90;;;;;;4154755;28;20768;-60
2023/04/04 01:14:58;;;;;;;5.10;3.20;;;1.90;99.90;;;;;;4161227;28;20283;-60
2023/04/04 01:17:01;;;;;;;6.23;3.87;;;1.90;99.90;;;;;;4162104;28;20681;-59
2023/04/04 01:19:08;;;;;;;5.97;3.10;;;1.80;99.90;;;;;;4161062;28;20824;-65
2023/04/04 01:21:12;;;;;;;6.67;3.53;;;1.80;99.90;;;;;;4155154;28;20259;-58
2023/04/04 01:23:14;;;;;;;4.53;3.37;;;1.80;99.90;;;;;;4144723;28;20264;-65
2023/04/04 01:25:17;;;;;;;6.03;3.47;;;1.70;99.90;;;;;;4145536;28;20260;-61
2023/04/04 01:27:19;;;;;;;4.20;2.97;;;1.70;99.90;;;;;;4144650;28;20280;-60
2023/04/04 01:29:20;;;;;;;4.73;3.37;;;1.70;99.90;;;;;;4155034;28;20677;-61
2023/04/04 01:31:45;;;;;;;5.97;3.80;;;1.70;99.90;;;;;;4161385;28;20329;-58
2023/04/04 01:34:01;;;;;;;8.20;4.23;;;1.70;99.90;;;;;;4161643;28;20309;-58
2023/04/04 01:36:24;;;;;;;8.67;3.47;;;1.70;99.90;;;;;;4160757;28;20259;-58
2023/04/04 01:38:49;;;;;;;5.93;3.97;;;1.70;99.90;;;;;;4162013;28;20360;-57
2023/04/04 01:40:56;;;;;;;4.83;3.57;;;1.60;99.90;;;;;;4160838;28;20672;-59
2023/04/04 01:42:57;;;;;;;5.83;4.03;;;1.60;99.90;;;;;;4161499;28;20320;-59
2023/04/04 01:44:58;;;;;;;5.80;4.00;;;1.60;99.90;;;;;;4160888;28;20750;-66
2023/04/04 01:47:00;;;;;;;5.40;3.63;;;1.60;99.90;;;;;;4161739;28;20270;-60
2023/04/04 01:49:01;;;;;;;5.63;3.70;;;1.50;99.90;;;;;;4155541;28;20275;-59
2023/04/04 01:51:03;;;;;;;6.50;4.20;;;1.50;99.90;;;;;;4154634;28;20297;-57
2023/04/04 01:53:04;;;;;;;5.27;3.47;;;1.50;99.90;;;;;;4160674;28;20275;-57
2023/04/04 01:55:05;;;;;;;6.17;3.47;;;1.50;99.90;;;;;;4146606;28;20275;-61
2023/04/04 01:57:07;;;;;;;7.43;4.90;;;1.50;99.90;;;;;;4143996;28;20280;-59
2023/04/04 01:59:08;;;;;;;4.77;3.57;;;1.50;99.90;;;;;;4158525;28;20283;-59
2023/04/04 02:01:09;;;;;;;4.80;3.73;;;1.60;99.90;;;;;;4160717;28;20317;-57
2023/04/04 02:03:10;;;;;;;7.00;4.33;;;1.60;99.90;;;;;;4145324;28;20273;-58
2023/04/04 02:05:12;;;;;;;5.70;4.17;;;1.60;99.90;;;;;;4144621;28;20260;-60
2023/04/04 02:07:13;;;;;;;7.77;5.27;;;1.60;99.90;;;;;;4143993;28;20346;-67
2023/04/04 02:09:14;;;;;;;8.37;5.30;;;1.60;99.90;;;;;;4145042;28;20279;-58
2023/04/04 02:11:16;;;;;;;7.90;5.30;;;1.50;99.90;;;;;;4144133;28;20691;-65
2023/04/04 02:13:17;;;;;;;7.13;4.50;;;1.60;99.90;;;;;;4145731;28;20275;-59
2023/04/04 02:15:18;;;;;;;6.20;4.53;;;1.50;99.90;;;;;;4143770;28;20387;-61
2023/04/04 02:17:19;;;;;;;6.20;3.93;;;1.50;99.90;;;;;;4144694;28;20279;-57
2023/04/04 02:19:20;;;;;;;7.97;4.97;;;1.50;99.90;;;;;;4143663;28;20290;-61
2023/04/04 02:21:24;;;;;;;6.10;4.20;;;1.50;99.90;;;;;;4144660;28;20267;-58
2023/04/04 02:23:25;;;;;;;7.20;4.47;;;1.50;99.90;;;;;;4143564;28;20688;-57
2023/04/04 02:25:26;;;;;;;7.77;4.80;;;1.50;99.90;;;;;;4159818;28;20287;-59
2023/04/04 02:27:28;;;;;;;6.43;4.03;;;1.50;99.90;;;;;;4150986;28;20295;-60
2023/04/04 02:29:29;;;;;;;6.00;4.20;;;1.40;99.90;;;;;;4144327;28;20771;-58
2023/04/04 02:31:31;;;;;;;8.00;4.77;;;1.40;99.90;;;;;;4143442;28;20663;-60
2023/04/04 02:33:32;;;;;;;8.33;5.03;;;1.40;99.90;;;;;;4144131;28;20322;-60
2023/04/04 02:35:33;;;;;;;6.90;4.37;;;1.40;99.90;;;;;;4143960;28;20267;-62
2023/04/04 02:37:34;;;;;;;7.93;4.47;;;1.40;99.90;;;;;;4144336;28;20329;-66
2023/04/04 02:39:35;;;;;;;7.10;4.50;;;1.40;99.90;;;;;;4144372;28;20314;-60
2023/04/04 02:41:36;;;;;;;7.20;4.67;;;1.40;99.90;;;;;;4143616;28;20272;-60
2023/04/04 02:43:37;;;;;;;9.80;5.63;;;1.40;99.90;;;;;;4144433;28;20299;-57
2023/04/04 02:45:38;;;;;;;11.07;4.83;;;1.40;99.90;;;;;;4143441;28;20267;-59
2023/04/04 02:47:41;;;;;;;6.83;4.90;;;1.40;99.90;;;;;;4144246;28;20264;-60
2023/04/04 02:49:42;;;;;;;10.37;5.27;;;1.40;99.90;;;;;;4149153;28;20278;-65
2023/04/04 02:51:43;;;;;;;9.60;5.53;;;1.30;99.90;;;;;;4157250;28;20759;-59
2023/04/04 02:53:45;;;;;;;9.33;6.03;;;1.30;99.90;;;;;;4151306;28;20270;-56
2023/04/04 02:55:47;;;;;;;10.20;5.50;;;1.30;99.90;;;;;;4160604;28;20324;-60
2023/04/04 02:57:51;;;;;;;9.30;5.33;;;1.30;99.90;;;;;;4159669;28;20321;-58
2023/04/04 02:59:52;;;;;;;8.97;5.57;;;1.30;99.90;;;;;;4160348;28;20313;-62
2023/04/04 03:01:53;;;;;;;9.57;5.57;;;1.30;99.90;;;;;;4159849;28;20271;-59
2023/04/04 03:03:55;;;;;;;4.73;4.20;;;1.30;99.90;;;;;;4160414;28;20750;-58
2023/04/04 03:05:58;;;;;;;5.43;4.50;;;1.30;99.90;;;;;;4159965;28;20271;-59
2023/04/04 03:07:59;;;;;;;9.60;5.93;;;1.30;99.90;;;;;;4160391;28;20274;-61
2023/04/04 03:10:00;;;;;;;7.37;5.47;;;1.30;99.90;;;;;;4160248;28;20267;-57
2023/04/04 03:12:03;;;;;;;8.60;4.83;;;1.30;99.90;;;;;;4159637;28;20267;-60
2023/04/04 03:14:04;;;;;;;5.90;4.40;;;1.30;99.90;;;;;;4160295;28;20317;-60
2023/04/04 03:16:05;;;;;;;8.00;4.93;;;1.30;99.90;;;;;;4159395;28;20309;-58
2023/04/04 03:18:07;;;;;;;6.30;4.80;;;1.20;99.90;;;;;;4159990;28;20278;-55
2023/04/04 03:20:09;;;;;;;5.83;4.27;;;1.20;99.90;;;;;;4144222;28;20279;-57
2023/04/04 03:22:10;;;;;;;8.63;5.57;;;1.20;99.90;;;;;;4145617;28;20290;-58
2023/04/04 03:24:11;;;;;;;8.37;5.33;;;1.20;99.90;;;;;;4159567;28;20761;-60
2023/04/04 03:26:12;;;;;;;8.23;5.10;;;1.20;99.90;;;;;;4162413;28;20263;-68
2023/04/04 03:28:13;;;;;;;6.97;5.07;;;1.20;99.90;;;;;;4149660;28;20279;-60
2023/04/04 03:30:15;;;;;;;7.33;4.67;;;1.20;99.90;;;;;;4145718;28;21613;-60
2023/04/04 03:32:17;;;;;;;7.03;4.70;;;1.20;99.90;;;;;;4146547;28;20275;-58
2023/04/04 03:34:18;;;;;;;13.57;6.43;;;1.20;99.90;;;;;;4147025;28;20761;-59
2023/04/04 03:36:20;;;;;;;9.13;5.73;;;1.20;99.90;;;;;;4146045;28;20330;-62
2023/04/04 03:38:21;;;;;;;11.17;5.23;;;1.20;99.90;;;;;;4147002;28;20287;-59
2023/04/04 03:40:22;;;;;;;7.87;5.23;;;1.10;99.90;;;;;;4146629;28;20268;-61
2023/04/04 03:42:23;;;;;;;7.00;4.63;;;1.10;99.90;;;;;;4146632;28;20818;-59
2023/04/04 03:44:24;;;;;;;6.17;4.20;;;1.10;99.90;;;;;;4146707;28;20267;-58
2023/04/04 03:46:26;;;;;;;5.63;3.97;;;1.10;99.90;;;;;;4159080;28;20328;-60
2023/04/04 03:48:27;;;;;;;6.73;4.10;;;1.10;99.90;;;;;;4152814;28;20703;-60
2023/04/04 03:50:29;;;;;;;5.63;4.30;;;1.00;99.90;;;;;;4153841;28;20286;-60
2023/04/04 03:52:30;;;;;;;8.10;5.20;;;1.10;99.90;;;;;;4148438;28;20275;-58
2023/04/04 03:54:32;;;;;;;5.87;4.20;;;1.10;99.90;;;;;;4159412;28;20832;-58
2023/04/04 03:56:33;;;;;;;8.50;5.03;;;1.10;99.90;;;;;;4154780;28;20274;-60
2023/04/04 03:58:35;;;;;;;9.63;5.23;;;1.10;99.90;;;;;;4161980;28;20267;-60
2023/04/04 04:00:36;;;;;;;7.40;4.93;;;1.10;99.90;;;;;;4160913;28;20841;-58
2023/04/04 04:02:37;;;;;;;7.63;4.80;;;1.10;99.90;;;;;;4155186;28;20275;-61
2023/04/04 04:04:38;;;;;;;7.03;4.57;;;1.10;99.90;;;;;;4146057;28;20321;-59
2023/04/04 04:06:40;;;;;;;7.43;4.87;;;1.10;99.90;;;;;;4145504;28;20259;-61
2023/04/04 04:08:41;;;;;;;7.67;4.27;;;1.10;99.90;;;;;;4145729;28;20337;-60
2023/04/04 04:10:42;;;;;;;7.33;4.60;;;1.10;99.90;;;;;;4145530;28;20319;-64
2023/04/04 04:12:43;;;;;;;8.87;4.80;;;1.10;99.90;;;;;;4145165;28;20272;-61
2023/04/04 04:14:45;;;;;;;5.63;4.10;;;1.10;99.90;;;;;;4145716;28;20287;-58
2023/04/04 04:16:46;;;;;;;4.63;3.87;;;1.00;99.90;;;;;;4144676;28;20333;-58
2023/04/04 04:18:48;;;;;;;5.40;4.30;;;1.00;99.90;;;;;;4145786;28;20402;-59
2023/04/04 04:20:49;;;;;;;9.37;4.00;;;1.10;99.90;;;;;;4154528;28;20268;-60
2023/04/04 04:22:51;;;;;;;4.77;3.80;;;1.10;99.90;;;;;;4141942;28;20833;-60
2023/04/04 04:24:52;;;;;;;7.93;5.27;;;1.20;99.90;;;;;;4148633;28;20337;-58
2023/04/04 04:26:53;;;;;;;7.97;4.83;;;1.20;99.90;;;;;;4145973;28;20267;-65
2023/04/04 04:28:54;;;;;;;7.20;4.63;;;1.20;99.90;;;;;;4148253;28;20283;-60
2023/04/04 04:30:55;;;;;;;7.77;5.37;;;1.20;99.90;;;;;;4147158;28;20322;-60
2023/04/04 04:32:56;;;;;;;8.03;5.00;;;1.30;99.90;;;;;;4145154;28;20323;-60
2023/04/04 04:34:58;;;;;;;9.17;4.67;;;1.30;99.90;;;;;;4152639;28;20362;-62
2023/04/04 04:36:59;;;;;;;7.53;4.37;;;1.30;99.90;;;;;;4145190;28;20283;-60
2023/04/04 04:39:00;;;;;;;5.00;4.03;;;1.30;99.90;;;;;;4149018;28;20784;-64
2023/04/04 04:41:01;;;;;;;6.03;4.10;;;1.20;99.90;;;;;;4145827;28;20790;-58
2023/04/04 04:43:03;;;;;;;8.50;4.87;;;1.30;99.90;;;;;;4148834;28;20274;-60
2023/04/04 04:45:04;;;;;;;6.63;3.73;;;1.20;99.90;;;;;;4147422;28;20325;-59
2023/04/04 04:47:05;;;;;;;8.73;4.30;;;1.20;99.90;;;;;;4148758;28;20320;-59
2023/04/04 04:49:07;;;;;;;9.53;6.17;;;1.20;99.90;;;;;;4161884;28;20336;-59
2023/04/04 04:51:08;;;;;;;12.40;6.03;;;1.20;99.90;;;;;;4157864;28;21123;-60
2023/04/04 04:53:09;;;;;;;7.40;4.70;;;1.20;99.90;;;;;;4149467;28;20313;-65
2023/04/04 04:55:10;;;;;;;9.30;5.77;;;1.20;99.90;;;;;;4150554;28;20797;-56
2023/04/04 04:57:11;;;;;;;7.57;5.20;;;1.20;99.90;;;;;;4153993;28;20276;-59
2023/04/04 04:59:14;;;;;;;6.43;4.70;;;1.20;99.90;;;;;;4144651;28;20322;-61
2023/04/04 05:01:15;;;;;;;10.47;5.40;;;1.20;99.90;;;;;;4145574;28;20279;-61
2023/04/04 05:03:16;;;;;;;7.57;4.83;;;1.20;99.90;;;;;;4144803;28;20605;-59
2023/04/04 05:05:17;;;;;;;6.47;4.77;;;1.20;99.90;;;;;;4145271;28;20263;-61
2023/04/04 05:07:19;;;;;;;10.23;5.70;;;1.20;99.90;;;;;;4144495;28;20780;-63
2023/04/04 05:09:20;;;;;;;8.33;5.00;;;1.20;99.90;;;;;;4145446;28;20613;-60
2023/04/04 05:11:21;;;;;;;7.00;4.50;;;1.20;99.90;;;;;;4144491;28;20358;-60
2023/04/04 05:13:24;;;;;;;6.17;4.20;;;1.30;99.90;;;;;;4144592;28;20291;-57
2023/04/04 05:15:27;;;;;;;5.90;4.63;;;1.30;99.90;;;;;;4145060;28;20283;-58
2023/04/04 05:17:29;;;;;;;6.67;4.40;;;1.30;99.90;;;;;;4144706;28;20358;-60
2023/04/04 05:19:30;;;;;;;6.37;4.23;;;1.20;99.90;;;;;;4145237;28;20325;-58
2023/04/04 05:21:31;;;;;;;8.30;5.27;;;1.20;99.90;;;;;;4144005;28;20682;-62
2023/04/04 05:23:32;;;;;;;7.17;4.53;;;1.20;99.90;;;;;;4145541;28;20675;-59
2023/04/04 05:25:33;;;;;;;6.70;4.33;;;1.30;99.90;;;;;;4144230;28;20314;-60
2023/04/04 05:27:34;;;;;;;7.00;4.20;;;1.30;99.90;;;;;;4145457;28;20276;-58
2023/04/04 05:29:35;;;;;;;7.03;4.27;;;1.30;99.90;;;;;;4143779;28;20283;-58
2023/04/04 05:31:37;;;;;;;5.80;4.27;;;1.30;99.90;;;;;;4145109;28;20299;-62
2023/04/04 05:33:38;;;;;;;7.67;5.10;;;1.40;99.90;;;;;;4144169;28;20350;-58
2023/04/04 05:35:40;;;;;;;7.13;4.80;;;1.40;99.90;;;;;;4144496;28;20272;-66
2023/04/04 05:37:41;;;;;;;8.10;4.60;;;1.40;99.90;;;;;;4144667;28;20282;-59
2023/04/04 05:39:42;;;;;;;7.23;4.47;;;1.40;99.90;;;;;;4144401;28;20268;-59
2023/04/04 05:41:43;;;;;;;7.90;4.53;;;1.50;99.90;;;;;;4144351;28;20997;-56
2023/04/04 05:43:44;;;;;;;7.67;4.53;;;1.50;99.90;;;;;;4144428;28;20271;-64
2023/04/04 05:45:45;;;;;;;8.13;5.70;;;1.50;99.90;;;;;;4144454;28;20314;-62
2023/04/04 05:47:47;;;;;;;11.17;6.50;;;1.60;99.90;;;;;;4143985;28;20271;-60
2023/04/04 05:49:48;;;;;;;16.70;7.80;;;1.60;99.90;;;;;;4144355;28;20321;-59
2023/04/04 05:51:49;;;;;;;14.20;7.00;;;1.60;99.90;;;;;;4143958;28;20349;-59
2023/04/04 05:53:50;;;;;;;13.10;6.70;;;1.60;99.90;;;;;;4144704;28;20252;-58
2023/04/04 05:55:52;;;;;;;11.53;6.77;;;1.50;99.90;;;;;;4143745;28;20268;-59
2023/04/04 05:57:53;;;;;;;9.90;6.30;;;1.50;99.90;;;;;;4144130;28;20337;-58
2023/04/04 05:59:54;;;;;;;11.00;6.20;;;1.50;99.90;;;;;;4143750;28;20279;-60
2023/04/04 06:01:55;;;;;;;7.10;4.73;;;1.40;99.90;;;;;;4144646;28;20264;-62
2023/04/04 06:03:58;;;;;;;27.03;14.20;;;1.40;99.90;;;;;;4144064;28;20317;-67
2023/04/04 06:06:03;;;;;;;14.50;8.53;;;1.40;99.90;;;;;;4143057;28;20299;-59
2023/04/04 06:08:04;;;;;;;10.03;6.83;;;1.40;99.90;;;;;;4144028;28;20334;-64
2023/04/04 06:10:06;;;;;;;6.50;4.33;;;1.50;99.90;;;;;;4144322;28;20271;-65
2023/04/04 06:12:08;;;;;;;8.47;4.60;;;1.40;99.90;;;;;;4143933;28;20767;-61
2023/04/04 06:14:09;;;;;;;6.77;4.10;;;1.40;99.90;;;;;;4143680;28;20776;-61
2023/04/04 06:16:10;;;;;;;7.63;5.00;;;1.50;99.90;;;;;;4144115;28;20283;-58
2023/04/04 06:18:11;;;;;;;7.60;4.63;;;1.40;99.90;;;;;;4143863;28;20326;-58
2023/04/04 06:20:12;;;;;;;6.83;4.77;;;1.50;99.90;;;;;;4144204;28;20316;-59
2023/04/04 06:22:16;;;;;;;9.60;5.13;;;1.50;99.90;;;;;;4143615;28;20275;-59
2023/04/04 06:24:17;;;;;;;6.33;4.67;;;1.50;99.90;;;;;;4143843;28;20314;-59
2023/04/04 06:26:19;;;;;;;8.00;5.20;;;1.50;99.90;;;;;;4143578;28;20287;-58
2023/04/04 06:28:20;;;;;;;8.07;4.90;;;1.50;99.90;;;;;;4144060;28;20276;-56
2023/04/04 06:30:21;;;;;;;7.97;5.60;;;1.50;99.90;;;;;;4143358;28;20382;-60
2023/04/04 06:32:22;;;;;;;7.53;5.53;;;1.60;99.90;;;;;;4144062;28;20298;-62
2023/04/04 06:34:24;;;;;;;9.57;4.90;;;1.60;99.90;;;;;;4143233;28;20317;-58
2023/04/04 06:36:25;;;;;;;9.47;5.60;;;1.70;99.90;;;;;;4144101;28;20329;-60
2023/04/04 06:38:28;;;;;;;6.53;4.80;;;1.70;99.90;;;;;;4143972;28;20672;-61
2023/04/04 06:40:29;;;;;;;5.80;4.53;;;1.80;99.90;;;;;;4143653;28;20322;-64
2023/04/04 06:42:30;;;;;;;9.83;5.10;;;1.80;99.90;;;;;;4143651;28;20348;-61
2023/04/04 06:44:31;;;;;;;6.83;5.10;;;1.90;99.90;;;;;;4143812;28;20330;-58
2023/04/04 06:46:33;;;;;;;9.53;5.33;;;1.90;99.90;;;;;;4143681;28;20338;-60
2023/04/04 06:48:34;;;;;;;8.30;4.63;;;1.90;99.90;;;;;;4143642;28;20267;-58
2023/04/04 06:50:36;;;;;;;7.57;4.87;;;2.00;99.90;;;;;;4143446;28;20276;-59
2023/04/04 06:52:37;;;;;;;8.93;5.63;;;2.00;99.90;;;;;;4142103;28;20834;-60
2023/04/04 06:54:38;;;;;;;7.43;5.10;;;2.10;99.90;;;;;;4142639;28;20260;-61
2023/04/04 06:56:40;;;;;;;6.80;5.03;;;2.10;99.90;;;;;;4142677;28;20306;-62
2023/04/04 06:58:41;;;;;;;8.70;5.20;;;2.10;99.90;;;;;;4144086;28;20341;-58
2023/04/04 07:00:43;;;;;;;6.87;4.90;;;2.20;99.90;;;;;;4142209;28;20345;-62
2023/04/04 07:02:44;;;;;;;8.80;4.90;;;2.20;99.90;;;;;;4143707;28;20363;-61
2023/04/04 07:04:45;;;;;;;11.67;6.97;;;2.30;99.90;;;;;;4142747;28;20329;-64
2023/04/04 07:06:46;;;;;;;12.93;7.63;;;2.20;99.90;;;;;;4143627;28;20323;-59
2023/04/04 07:08:47;;;;;;;9.37;5.67;;;2.20;99.90;;;;;;4143391;28;20338;-62
2023/04/04 07:10:48;;;;;;;9.23;5.33;;;2.20;99.90;;;;;;4143856;28;20400;-64
2023/04/04 07:12:50;;;;;;;8.60;5.63;;;2.30;99.90;;;;;;4143482;28;20267;-63
2023/04/04 07:14:51;;;;;;;8.50;5.47;;;2.30;99.90;;;;;;4143086;28;20752;-61
2023/04/04 07:16:53;;;;;;;9.23;5.50;;;2.20;99.90;;;;;;4142277;28;20274;-60
2023/04/04 07:18:55;;;;;;;6.87;4.87;;;2.20;99.90;;;;;;4142883;28;20679;-62
2023/04/04 07:20:57;;;;;;;8.80;5.03;;;2.20;99.90;;;;;;4143450;28;20805;-64
2023/04/04 07:22:58;;;;;;;8.17;5.30;;;2.20;99.90;;;;;;4141269;28;20633;-61
2023/04/04 07:24:59;;;;;;;9.57;5.00;;;2.20;99.90;;;;;;4143578;28;20267;-60
2023/04/04 07:27:00;;;;;;;7.87;5.40;;;2.20;99.90;;;;;;4143149;28;20322;-65
2023/04/04 07:29:01;;;;;;;9.00;6.20;;;2.20;99.90;;;;;;4143548;28;20302;-61
2023/04/04 07:31:03;;;;;;;8.30;6.00;;;2.20;99.90;;;;;;4142573;28;20938;-63
2023/04/04 07:33:04;;;;;;;8.77;6.20;;;2.20;99.90;;;;;;4143459;28;20652;-64
2023/04/04 07:35:06;;;;;;;9.30;5.83;;;2.20;99.90;;;;;;4142663;28;20252;-64
2023/04/04 07:37:07;;;;;;;6.57;5.10;;;2.20;99.90;;;;;;4143664;28;20736;-61
2023/04/04 07:39:09;;;;;;;7.73;4.87;;;2.20;99.90;;;;;;4143200;28;20322;-61
2023/04/04 07:41:10;;;;;;;7.47;5.10;;;2.20;99.90;;;;;;4143343;28;20267;-61
2023/04/04 07:43:11;;;;;;;7.93;5.47;;;2.20;99.90;;;;;;4143020;28;20251;-59
2023/04/04 07:45:13;;;;;;;17.23;9.93;;;2.20;99.90;;;;;;4143250;28;20268;-63
2023/04/04 07:47:15;;;;;;;12.30;8.27;;;2.10;99.90;;;;;;4142779;28;20276;-63
2023/04/04 07:49:16;;;;;;;13.03;6.97;;;2.10;99.90;;;;;;4142650;28;20335;-58
2023/04/04 07:51:19;;;;;;;8.00;5.77;;;2.10;99.90;;;;;;4142976;28;20287;-63
2023/04/04 07:53:21;;;;;;;10.60;6.63;;;2.20;99.90;;;;;;4142511;28;20276;-59
2023/04/04 07:55:24;;;;;;;15.47;7.43;;;2.20;99.90;;;;;;4143471;28;20267;-60
2023/04/04 07:57:25;;;;;;;8.87;5.03;;;2.20;99.90;;;;;;4142827;28;20637;-61
2023/04/04 07:59:26;;;;;;;11.30;5.63;;;2.20;99.90;;;;;;4143088;28;20341;-60
2023/04/04 08:01:27;;;;;;;9.93;5.13;;;2.20;99.90;;;;;;4142620;28;20263;-64
2023/04/04 08:03:28;;;;;;;6.70;5.40;;;2.10;99.90;;;;;;4143445;28;20798;-61
2023/04/04 08:05:30;;;;;;;11.60;5.33;;;2.10;99.90;;;;;;4142342;28;20275;-60
2023/04/04 08:07:31;;;;;;;9.83;6.07;;;2.10;99.90;;;;;;4143272;28;20360;-63
2023/04/04 08:09:35;;;;;;;12.40;5.97;;;2.00;99.90;;;;;;4142898;28;20636;-60
2023/04/04 08:11:36;;;;;;;8.40;6.27;;;2.00;99.90;;;;;;4143965;28;20362;-60
2023/04/04 08:13:37;;;;;;;11.17;5.13;;;2.10;99.90;;;;;;4145520;28;20267;-60
2023/04/04 08:15:39;;;;;;;9.60;6.10;;;2.10;99.90;;;;;;4146081;28;20275;-64
2023/04/04 08:17:42;;;;;;;9.23;5.40;;;2.10;99.90;;;;;;4145863;28;20263;-59
2023/04/04 08:19:43;;;;;;;8.27;5.37;;;2.20;99.90;;;;;;4146112;28;20329;-59
2023/04/04 08:21:45;;;;;;;9.67;5.87;;;2.20;99.90;;;;;;4145837;28;20371;-61
2023/04/04 08:23:46;;;;;;;8.33;6.07;;;2.20;99.90;;;;;;4145794;28;20771;-57
2023/04/04 08:25:47;;;;;;;10.20;6.20;;;2.30;99.90;;;;;;4144423;28;20275;-59
2023/04/04 08:27:48;;;;;;;8.87;5.27;;;2.30;99.90;;;;;;4145470;28;20321;-62
2023/04/04 08:29:49;;;;;;;9.53;6.80;;;2.30;99.90;;;;;;4145945;28;20275;-61
2023/04/04 08:31:52;;;;;;;11.70;6.30;;;2.20;99.90;;;;;;4145097;28;20406;-58
2023/04/04 08:33:54;;;;;;;13.97;7.77;;;2.20;99.90;;;;;;4144698;28;20317;-57
2023/04/04 08:35:57;;;;;;;10.73;7.30;;;2.20;99.90;;;;;;4144421;28;20345;-61
2023/04/04 08:38:01;;;;;;;11.00;7.37;;;2.20;99.90;;;;;;4145858;28;20279;-60
2023/04/04 08:40:03;;;;;;;10.60;7.60;;;2.30;99.90;;;;;;4145223;28;20333;-59
2023/04/04 08:42:06;;;;;;;9.83;7.57;;;2.30;99.90;;;;;;4145912;28;20728;-59
2023/04/04 08:44:11;;;;;;;10.83;8.07;;;2.30;99.90;;;;;;4144812;28;20814;-60
2023/04/04 08:46:14;;;;;;;10.57;7.00;;;2.20;99.90;;;;;;4145723;28;20704;-61
2023/04/04 08:48:16;;;;;;;10.63;7.53;;;2.20;99.90;;;;;;4143594;28;20316;-60
2023/04/04 08:50:18;;;;;;;9.17;6.43;;;2.20;99.90;;;;;;4145373;28;20267;-59
2023/04/04 08:52:21;;;;;;;9.40;7.07;;;2.30;99.90;;;;;;4145065;28;20353;-59
2023/04/04 08:54:25;;;;;;;11.97;7.17;;;2.40;99.90;;;;;;4145239;28;20338;-65
2023/04/04 08:56:27;;;;;;;10.30;7.20;;;2.50;99.90;;;;;;4144836;28;20263;-59
2023/04/04 08:58:28;;;;;;;10.37;7.23;;;2.50;99.90;;;;;;4145329;28;20307;-60
2023/04/04 09:00:30;;;;;;;12.77;6.90;;;2.50;99.90;;;;;;4145467;28;20305;-58
2023/04/04 09:03:04;;;;;;;10.97;7.57;;;2.60;99.90;;;;;;4144585;28;20765;-60
2023/04/04 09:05:07;;;;;;;12.40;8.10;;;2.60;99.90;;;;;;4144831;28;20343;-60
2023/04/04 09:07:08;;;;;;;12.63;8.27;;;2.60;99.90;;;;;;4144640;28;20271;-59
2023/04/04 09:09:10;;;;;;;10.53;8.10;;;2.60;99.90;;;;;;4145575;28;20345;-59
2023/04/04 09:11:13;;;;;;;11.00;6.87;;;2.70;99.90;;;;;;4144800;28;20627;-59
2023/04/04 09:13:14;;;;;;;8.50;6.30;;;2.70;99.90;;;;;;4145245;28;20405;-57
2023/04/04 09:15:16;;;;;;;7.97;6.17;;;2.70;99.90;;;;;;4144011;28;20318;-60
2023/04/04 09:17:17;;;;;;;9.30;6.63;;;2.70;99.90;;;;;;4145387;28;20271;-62
2023/04/04 09:19:18;;;;;;;7.90;6.07;;;2.70;99.90;;;;;;4144172;28;20260;-59
2023/04/04 09:21:19;;;;;;;10.80;8.07;;;2.60;99.90;;;;;;4145033;28;20476;-60
2023/04/04 09:23:22;;;;;;;12.57;8.50;;;2.60;99.90;;;;;;4143101;28;20329;-59
2023/04/04 09:25:23;;;;;;;11.00;7.63;;;2.60;99.90;;;;;;4145064;28;20688;-65
2023/04/04 09:27:24;;;;;;;9.20;6.97;;;2.60;99.90;;;;;;4144150;28;20771;-61
2023/04/04 09:29:25;;;;;;;10.60;7.43;;;2.70;99.90;;;;;;4144794;28;20272;-58
2023/04/04 09:31:27;;;;;;;9.93;6.93;;;2.80;99.90;;;;;;4144334;28;20329;-60
2023/04/04 09:33:31;;;;;;;10.47;7.37;;;2.90;99.90;;;;;;4144821;28;20338;-61
2023/04/04 09:35:36;;;;;;;11.30;7.00;;;2.80;99.90;;;;;;4144478;28;20248;-60
2023/04/04 09:37:39;;;;;;;14.73;9.10;;;2.80;99.90;;;;;;4144612;28;20871;-63
2023/04/04 09:39:42;;;;;;;20.77;11.07;;;2.80;99.90;;;;;;4144150;28;20276;-60
2023/04/04 09:41:44;;;;;;;22.83;12.60;;;2.80;99.90;;;;;;4143790;28;20302;-64
2023/04/04 09:43:45;;;;;;;68.10;31.43;;;2.90;99.90;;;;;;4142651;28;20298;-60
2023/04/04 09:45:47;;;;;;;121.07;53.83;;;2.90;99.90;;;;;;4143676;28;20275;-66
2023/04/04 09:47:49;;;;;;;110.70;59.40;;;3.00;99.90;;;;;;4144623;28;20279;-59
2023/04/04 09:49:50;;;;;;;29.67;20.10;;;3.00;99.90;;;;;;4143676;28;20272;-64
2023/04/04 09:51:54;;;;;;;13.40;9.00;;;2.90;99.90;;;;;;4144295;28;20354;-61
2023/04/04 09:53:57;;;;;;;14.17;9.47;;;2.90;99.90;;;;;;4143853;28;20391;-59
2023/04/04 09:55:59;;;;;;;17.20;9.83;;;2.80;99.90;;;;;;4144752;28;20268;-61
2023/04/04 09:58:11;;;;;;;13.90;9.23;;;2.80;99.90;;;;;;4143929;28;20349;-60
2023/04/04 10:00:18;;;;;;;14.97;7.93;;;2.80;99.90;;;;;;4144420;28;20272;-64
2023/04/04 10:02:19;;;;;;;12.60;7.77;;;2.80;99.90;;;;;;4143755;28;20759;-59
2023/04/04 10:04:23;;;;;;;11.97;8.30;;;2.80;99.90;;;;;;4144397;28;20264;-60
2023/04/04 10:06:25;;;;;;;10.13;7.40;;;3.00;99.90;;;;;;4143847;28;20310;-63
2023/04/04 10:08:28;;;;;;;12.67;7.50;;;3.00;99.90;;;;;;4143743;28;20267;-60
2023/04/04 10:10:33;;;;;;;11.33;7.77;;;3.10;99.90;;;;;;4143955;28;20267;-64
2023/04/04 10:12:36;;;;;;;12.87;7.80;;;3.10;99.90;;;;;;4143980;28;20299;-58
2023/04/04 10:14:37;;;;;;;10.27;7.83;;;3.20;99.90;;;;;;4142124;28;20354;-59
2023/04/04 10:16:44;;;;;;;9.07;7.03;;;3.20;99.90;;;;;;4143167;28;20279;-61
2023/04/04 10:18:46;;;;;;;11.07;7.87;;;3.20;99.90;;;;;;4143607;28;20275;-61
2023/04/04 10:20:49;;;;;;;11.20;7.77;;;3.20;99.90;;;;;;4143211;28;20272;-58
2023/04/04 10:22:51;;;;;;;10.37;7.60;;;3.30;99.90;;;;;;4144151;28;20834;-60
2023/04/04 10:24:52;;;;;;;13.70;8.03;;;3.30;99.90;;;;;;4143560;28;20643;-60
2023/04/04 10:26:54;;;;;;;12.93;7.87;;;3.30;99.90;;;;;;4143377;28;20283;-60
2023/04/04 10:28:56;;;;;;;11.83;7.10;;;3.30;99.90;;;;;;4143342;28;20283;-56
2023/04/04 10:31:03;;;;;;;11.70;7.80;;;3.40;99.90;;;;;;4143886;28;20275;-60
2023/04/04 10:33:14;;;;;;;12.43;8.03;;;3.40;99.90;;;;;;4143010;28;20344;-58
2023/04/04 10:35:17;;;;;;;13.90;9.80;;;3.40;99.90;;;;;;4141925;28;20353;-60
2023/04/04 10:37:25;;;;;;;11.83;8.93;;;3.40;99.90;;;;;;4142730;28;21146;-56
2023/04/04 10:39:33;;;;;;;13.27;8.10;;;3.40;99.90;;;;;;4142753;28;20283;-62